Time;durP1;ratioP1;P1;durP2;ratioP2;P2;SDS_P1;SDS_P2;PMS_P1;PMS_P2;Temp;Humidity;BMP_temperature;BMP_pressure;BME280_temperature;BME280_humidity;BME280_pressure;Samples;Min_cycle;Max_cycle;Signal;HPM_P1;HPM_P2
2023/03/16 00:02:23;;;;;;;;;;;;;;;11.19;51.47;98574.25;5091426;28;19913;-36
2023/03/16 00:04:48;;;;;;;;;;;;;;;11.24;51.86;98571.69;5091166;28;19930;-36
2023/03/16 00:07:14;;;;;;;;;;;;;;;10.92;53.02;98574.75;5091110;28;19950;-37
2023/03/16 00:09:40;;;;;;;;;;;;;;;11.08;52.86;98572.41;5090946;28;19919;-42
2023/03/16 00:12:06;;;;;;;;;;;;;;;10.88;54.64;98573.63;5091117;28;19962;-42
2023/03/16 00:14:34;;;;;;;;;;;;;;;10.94;53.84;98567.34;5090914;28;20049;-42
2023/03/16 00:16:59;;;;;;;;;;;;;;;10.99;53.79;98584.50;5090684;28;19912;-42
2023/03/16 00:19:25;;;;;;;;;;;;;;;10.98;55.14;98575.69;5090952;28;19935;-42
2023/03/16 00:21:50;;;;;;;;;;;;;;;11.18;54.13;98569.16;5091164;28;19916;-42
2023/03/16 00:24:17;;;;;;;;;;;;;;;11.05;55.06;98567.56;5090898;28;19928;-42
2023/03/16 00:26:42;;;;;;;;;;;;;;;10.96;55.35;98577.75;5090832;28;19935;-42
2023/03/16 00:29:08;;;;;;;;;;;;;;;11.07;55.12;98570.81;5090921;28;20318;-42
2023/03/16 00:31:34;;;;;;;;;;;;;;;10.84;56.57;98575.13;5091109;28;19955;-43
2023/03/16 00:34:01;;;;;;;;;;;;;;;11.03;56.22;98573.13;5090962;28;20410;-43
2023/03/16 00:36:27;;;;;;;;;;;;;;;10.88;57.33;98567.50;5090683;28;20003;-43
2023/03/16 00:38:53;;;;;;;;;;;;;;;10.75;56.91;98579.97;5090899;28;20396;-43
2023/03/16 00:41:18;;;;;;;;;;;;;;;10.68;58.22;98579.31;5090509;28;19912;-43
2023/03/16 00:43:44;;;;;;;;;;;;;;;10.78;58.11;98581.38;5090814;28;19912;-42
2023/03/16 00:46:14;;;;;;;;;;;;;;;10.85;57.38;98582.09;5091030;28;19916;-43
2023/03/16 00:48:41;;;;;;;;;;;;;;;10.74;57.75;98589.03;5090892;28;19977;-43
2023/03/16 00:51:08;;;;;;;;;;;;;;;10.85;58.77;98584.75;5095080;28;19916;-42
2023/03/16 00:53:33;;;;;;;;;;;;;;;11.08;57.73;98591.03;5094836;28;19912;-42
2023/03/16 00:56:03;;;;;;;;;;;;;;;10.58;59.01;98592.38;5094858;28;19969;-43
2023/03/16 00:58:28;;;;;;;;;;;;;;;10.87;58.35;98589.81;5094481;28;19916;-43
2023/03/16 01:00:55;;;;;;;;;;;;;;;10.88;58.15;98597.56;5094935;28;19958;-42
2023/03/16 01:03:21;;;;;;;;;;;;;;;11.12;57.65;98597.56;5094756;28;19912;-43
2023/03/16 01:05:46;;;;;;;;;;;;;;;11.24;58.10;98603.66;5094677;28;19923;-42
2023/03/16 01:08:11;;;;;;;;;;;;;;;10.80;58.88;98605.91;5094747;28;20352;-42
2023/03/16 01:10:37;;;;;;;;;;;;;;;10.52;60.68;98596.75;5094438;28;19918;-43
2023/03/16 01:13:06;;;;;;;;;;;;;;;10.63;60.78;98599.69;5093798;28;19999;-42
2023/03/16 01:15:33;;;;;;;;;;;;;;;10.75;60.16;98600.47;5094315;28;20383;-42
2023/03/16 01:17:59;;;;;;;;;;;;;;;10.83;60.18;98599.31;5094415;28;20370;-42
2023/03/16 01:20:25;;;;;;;;;;;;;;;10.74;60.27;98601.53;5094331;28;19912;-42
2023/03/16 01:22:50;;;;;;;;;;;;;;;10.62;60.64;98604.16;5094022;28;19927;-42
2023/03/16 01:25:17;;;;;;;;;;;;;;;10.93;59.95;98608.34;5094239;28;20389;-42
2023/03/16 01:27:43;;;;;;;;;;;;;;;10.60;61.01;98613.44;5094219;28;19969;-42
2023/03/16 01:30:11;;;;;;;;;;;;;;;10.36;62.23;98618.75;5094888;28;19916;-42
2023/03/16 01:32:36;;;;;;;;;;;;;;;10.51;61.89;98618.31;5094709;28;19938;-41
2023/03/16 01:35:03;;;;;;;;;;;;;;;9.94;63.74;98619.53;5094721;28;20287;-41
2023/03/16 01:37:29;;;;;;;;;;;;;;;10.00;63.70;98630.31;5094801;28;19912;-43
2023/03/16 01:39:54;;;;;;;;;;;;;;;10.13;63.58;98627.47;5094534;28;19927;-42
2023/03/16 01:42:19;;;;;;;;;;;;;;;9.83;64.53;98625.63;5094310;28;19947;-41
2023/03/16 01:44:49;;;;;;;;;;;;;;;9.39;65.29;98625.78;5094608;28;20345;-41
2023/03/16 01:47:14;;;;;;;;;;;;;;;9.67;64.43;98628.91;5094696;28;19916;-43
2023/03/16 01:49:40;;;;;;;;;;;;;;;9.82;63.71;98623.19;5094158;28;19919;-43
2023/03/16 01:52:07;;;;;;;;;;;;;;;9.93;62.82;98628.53;5094605;28;19919;-43
2023/03/16 01:54:39;;;;;;;;;;;;;;;9.43;63.05;98634.09;5094306;28;19912;-43
2023/03/16 01:57:07;;;;;;;;;;;;;;;9.44;63.48;98634.91;5094215;28;19923;-42
2023/03/16 01:59:43;;;;;;;;;;;;;;;9.48;62.50;98636.91;5094140;28;19916;-42
2023/03/16 02:02:10;;;;;;;;;;;;;;;9.18;63.28;98640.31;5093165;28;20061;-42
2023/03/16 02:05:01;;;;;;;;;;;;;;;9.06;63.29;98633.28;5093826;28;20071;-43
2023/03/16 02:07:27;;;;;;;;;;;;;;;9.07;63.01;98640.25;5094293;28;19923;-42
2023/03/16 02:09:55;;;;;;;;;;;;;;;8.89;63.29;98652.47;5094312;28;19920;-41
2023/03/16 02:12:20;;;;;;;;;;;;;;;8.78;63.12;98651.31;5093797;28;20010;-42
2023/03/16 02:14:46;;;;;;;;;;;;;;;9.11;62.21;98660.00;5094158;28;20183;-43
2023/03/16 02:17:16;;;;;;;;;;;;;;;9.22;61.61;98666.44;5093882;28;19947;-43
2023/03/16 02:20:10;;;;;;;;;;;;;;;8.90;62.67;98662.03;5094162;28;19926;-42
2023/03/16 02:22:42;;;;;;;;;;;;;;;8.87;62.87;98665.13;5089995;28;19912;-42
2023/03/16 02:25:07;;;;;;;;;;;;;;;8.84;63.24;98673.53;5093797;28;19924;-42
2023/03/16 02:27:41;;;;;;;;;;;;;;;9.05;62.61;98671.50;5093749;28;19920;-43
2023/03/16 02:30:12;;;;;;;;;;;;;;;8.93;63.37;98668.72;5093697;28;19985;-42
2023/03/16 02:32:38;;;;;;;;;;;;;;;8.89;63.34;98678.16;5093570;28;20374;-42
2023/03/16 02:35:04;;;;;;;;;;;;;;;8.60;64.81;98667.19;5093892;28;19913;-42
2023/03/16 02:37:32;;;;;;;;;;;;;;;8.69;64.75;98676.50;5094001;28;19912;-42
2023/03/16 02:39:58;;;;;;;;;;;;;;;8.65;65.79;98677.97;5093534;28;19916;-42
2023/03/16 02:42:25;;;;;;;;;;;;;;;8.83;65.07;98682.50;5093207;28;20001;-42
2023/03/16 02:44:57;;;;;;;;;;;;;;;8.65;64.64;98677.97;5092811;28;19908;-41
2023/03/16 02:47:32;;;;;;;;;;;;;;;8.57;64.81;98680.91;5092964;28;19939;-42
2023/03/16 02:49:58;;;;;;;;;;;;;;;8.80;64.18;98682.94;5092037;28;19920;-43
2023/03/16 02:52:23;;;;;;;;;;;;;;;8.67;64.50;98689.16;5093249;28;19913;-43
2023/03/16 02:54:48;;;;;;;;;;;;;;;8.78;64.24;98695.63;5093283;28;19912;-42
2023/03/16 02:57:13;;;;;;;;;;;;;;;8.31;65.17;98679.22;5093159;28;20117;-43
2023/03/16 02:59:40;;;;;;;;;;;;;;;8.61;63.95;98693.50;5093123;28;19965;-42
2023/03/16 03:02:05;;;;;;;;;;;;;;;8.07;65.41;98704.63;5093239;28;19912;-42
2023/03/16 03:04:31;;;;;;;;;;;;;;;8.02;65.62;98708.72;5092751;28;20015;-42
2023/03/16 03:07:02;;;;;;;;;;;;;;;8.16;64.43;98717.41;5092993;28;19920;-42
2023/03/16 03:09:28;;;;;;;;;;;;;;;8.08;64.25;98715.03;5092808;28;20008;-42
2023/03/16 03:11:53;;;;;;;;;;;;;;;8.27;63.30;98723.09;5092877;28;20405;-41
2023/03/16 03:14:18;;;;;;;;;;;;;;;8.43;62.65;98725.22;5092570;28;19912;-41
2023/03/16 03:16:45;;;;;;;;;;;;;;;8.28;63.05;98730.81;5092722;28;19912;-42
2023/03/16 03:19:10;;;;;;;;;;;;;;;7.83;63.95;98722.91;5092711;28;19963;-42
2023/03/16 03:21:36;;;;;;;;;;;;;;;7.86;63.58;98725.09;5092615;28;19952;-41
2023/03/16 03:24:01;;;;;;;;;;;;;;;7.79;63.34;98735.75;5092533;28;19924;-41
2023/03/16 03:26:26;;;;;;;;;;;;;;;7.90;63.61;98725.50;5092625;28;19916;-42
2023/03/16 03:28:52;;;;;;;;;;;;;;;7.73;64.26;98739.25;5092228;28;19977;-42
2023/03/16 03:31:18;;;;;;;;;;;;;;;7.86;64.22;98729.59;5092482;28;19920;-42
2023/03/16 03:33:43;;;;;;;;;;;;;;;7.84;64.04;98740.41;5092518;28;19919;-42
2023/03/16 03:36:10;;;;;;;;;;;;;;;7.69;64.40;98743.31;5092584;28;19916;-42
2023/03/16 03:38:35;;;;;;;;;;;;;;;7.69;64.46;98748.63;5092582;28;19916;-41
2023/03/16 03:41:01;;;;;;;;;;;;;;;7.63;64.56;98744.13;5092453;28;20037;-42
2023/03/16 03:43:26;;;;;;;;;;;;;;;7.56;65.21;98746.03;5092637;28;19916;-41
2023/03/16 03:45:58;;;;;;;;;;;;;;;7.50;66.07;98757.41;5092402;28;19934;-42
2023/03/16 03:48:24;;;;;;;;;;;;;;;7.60;64.86;98757.81;5092526;28;19988;-42
2023/03/16 03:50:49;;;;;;;;;;;;;;;7.56;65.47;98748.66;5092081;28;20383;-42
2023/03/16 03:53:14;;;;;;;;;;;;;;;7.33;66.17;98767.63;5092303;28;19912;-42
2023/03/16 03:55:40;;;;;;;;;;;;;;;7.78;64.78;98773.84;5092157;28;20015;-42
2023/03/16 03:58:05;;;;;;;;;;;;;;;7.72;64.94;98769.38;5091866;28;19999;-42
2023/03/16 04:00:31;;;;;;;;;;;;;;;7.92;64.28;98771.13;5090638;28;19919;-42
2023/03/16 04:02:56;;;;;;;;;;;;;;;7.92;64.52;98774.63;5092158;28;19966;-42
2023/03/16 04:05:24;;;;;;;;;;;;;;;7.77;64.96;98766.94;5091910;28;19918;-42
2023/03/16 04:07:53;;;;;;;;;;;;;;;7.79;64.54;98772.03;5092072;28;19916;-42
2023/03/16 04:10:19;;;;;;;;;;;;;;;7.76;64.65;98775.06;5091900;28;19943;-42
2023/03/16 04:12:45;;;;;;;;;;;;;;;7.55;65.24;98778.78;5091758;28;19948;-41
2023/03/16 04:15:11;;;;;;;;;;;;;;;7.55;64.56;98782.25;5092046;28;19919;-41
2023/03/16 04:17:36;;;;;;;;;;;;;;;7.37;64.60;98782.91;5092203;28;19938;-41
2023/03/16 04:20:05;;;;;;;;;;;;;;;7.39;64.62;98785.34;5091635;28;20375;-40
2023/03/16 04:22:30;;;;;;;;;;;;;;;7.68;63.74;98794.66;5093646;28;19916;-42
2023/03/16 04:24:55;;;;;;;;;;;;;;;7.39;64.09;98801.22;5090992;28;19944;-42
2023/03/16 04:27:21;;;;;;;;;;;;;;;7.50;63.68;98810.38;5091797;28;19912;-42
2023/03/16 04:29:46;;;;;;;;;;;;;;;7.57;63.18;98803.22;5096433;28;19915;-41
2023/03/16 04:32:11;;;;;;;;;;;;;;;7.16;63.97;98807.75;5111925;28;20271;-41
2023/03/16 04:34:38;;;;;;;;;;;;;;;7.08;64.79;98810.59;5111985;28;19950;-41
2023/03/16 04:37:03;;;;;;;;;;;;;;;7.16;63.79;98807.75;5112210;28;20005;-41
2023/03/16 04:39:28;;;;;;;;;;;;;;;7.12;64.53;98801.25;5111669;28;20028;-42
2023/03/16 04:41:54;;;;;;;;;;;;;;;7.17;64.08;98814.66;5111945;28;20291;-42
2023/03/16 04:44:19;;;;;;;;;;;;;;;7.08;64.17;98815.88;5111833;28;19942;-42
2023/03/16 04:46:45;;;;;;;;;;;;;;;7.21;63.97;98813.22;5111645;28;19912;-43
2023/03/16 04:49:10;;;;;;;;;;;;;;;7.19;63.43;98822.41;5111966;28;19995;-43
2023/03/16 04:51:36;;;;;;;;;;;;;;;7.27;63.09;98818.75;5111665;28;19911;-42
2023/03/16 04:54:02;;;;;;;;;;;;;;;7.13;63.17;98828.50;5111890;28;19915;-42
2023/03/16 04:56:27;;;;;;;;;;;;;;;7.06;62.98;98831.16;5111526;28;20388;-42
2023/03/16 04:58:52;;;;;;;;;;;;;;;7.27;62.75;98839.91;5111485;28;19915;-41
2023/03/16 05:01:18;;;;;;;;;;;;;;;7.00;63.38;98853.94;5111846;28;19916;-41
2023/03/16 05:03:43;;;;;;;;;;;;;;;6.98;63.15;98845.38;5110329;28;19924;-42
2023/03/16 05:06:10;;;;;;;;;;;;;;;6.99;62.85;98847.03;5091081;28;20379;-42
2023/03/16 05:08:36;;;;;;;;;;;;;;;7.01;62.35;98860.88;5091339;28;20003;-42
2023/03/16 05:11:01;;;;;;;;;;;;;;;6.99;63.07;98868.19;5090989;28;20006;-42
2023/03/16 05:13:26;;;;;;;;;;;;;;;7.19;61.44;98868.19;5091071;28;19955;-42
2023/03/16 05:15:55;;;;;;;;;;;;;;;7.18;60.99;98879.00;5090985;28;20277;-42
2023/03/16 05:18:20;;;;;;;;;;;;;;;7.30;61.00;98873.91;5091159;28;19969;-42
2023/03/16 05:20:48;;;;;;;;;;;;;;;7.27;60.63;98885.72;5090532;28;19912;-43
2023/03/16 05:23:14;;;;;;;;;;;;;;;6.93;61.32;98887.53;5090503;28;19924;-43
2023/03/16 05:25:39;;;;;;;;;;;;;;;6.98;60.51;98900.13;5089753;28;19919;-42
2023/03/16 05:28:04;;;;;;;;;;;;;;;7.09;59.95;98896.09;5090721;28;19912;-43
2023/03/16 05:30:30;;;;;;;;;;;;;;;6.81;61.18;98904.97;5090720;28;19912;-43
2023/03/16 05:32:56;;;;;;;;;;;;;;;6.62;61.96;98910.00;5090992;28;20249;-43
2023/03/16 05:35:22;;;;;;;;;;;;;;;6.80;61.72;98898.06;5091096;28;19912;-42
2023/03/16 05:37:47;;;;;;;;;;;;;;;6.93;60.69;98902.56;5093000;28;20426;-37
2023/03/16 05:40:16;;;;;;;;;;;;;;;7.09;60.56;98914.63;5094548;28;20031;-37
2023/03/16 05:42:45;;;;;;;;;;;;;;;7.04;60.01;98904.63;5093773;28;19954;-36
2023/03/16 05:45:11;;;;;;;;;;;;;;;7.05;60.20;98909.72;5093969;28;19919;-36
2023/03/16 05:47:36;;;;;;;;;;;;;;;6.90;60.39;98922.28;5094406;28;19912;-36
2023/03/16 05:50:02;;;;;;;;;;;;;;;6.99;60.11;98921.09;5093943;28;19912;-36
2023/03/16 05:52:28;;;;;;;;;;;;;;;6.55;60.33;98890.66;5093892;28;19912;-36
2023/03/16 05:54:53;;;;;;;;;;;;;;;6.94;60.25;98915.59;5093864;28;19918;-35
2023/03/16 05:57:18;;;;;;;;;;;;;;;7.01;59.73;98921.72;5094016;28;20287;-42
2023/03/16 05:59:43;;;;;;;;;;;;;;;6.92;59.27;98920.25;5093562;28;20006;-43
2023/03/16 06:02:09;;;;;;;;;;;;;;;7.04;59.25;98947.78;5093921;28;20366;-43
2023/03/16 06:04:35;;;;;;;;;;;;;;;6.93;59.99;98919.25;5093774;28;19956;-42
2023/03/16 06:07:01;;;;;;;;;;;;;;;6.91;60.59;98917.81;5094099;28;20010;-42
2023/03/16 06:09:26;;;;;;;;;;;;;;;7.05;59.82;98933.53;5094019;28;19958;-42
2023/03/16 06:11:52;;;;;;;;;;;;;;;7.17;60.38;98938.22;5093069;28;19924;-41
2023/03/16 06:14:17;;;;;;;;;;;;;;;7.49;59.47;98934.00;5094593;28;19927;-43
2023/03/16 06:16:42;;;;;;;;;;;;;;;7.35;60.19;98949.06;5093980;28;19943;-42
2023/03/16 06:19:08;;;;;;;;;;;;;;;7.30;59.46;98943.53;5093647;28;20348;-43
2023/03/16 06:21:33;;;;;;;;;;;;;;;7.06;59.84;98942.25;5092806;28;19916;-42
2023/03/16 06:23:58;;;;;;;;;;;;;;;7.00;59.38;98953.66;5093428;28;20325;-43
2023/03/16 06:26:23;;;;;;;;;;;;;;;7.11;59.30;98957.56;5093681;28;19998;-42
2023/03/16 06:28:49;;;;;;;;;;;;;;;7.18;58.79;98959.19;5093299;28;20310;-42
2023/03/16 06:31:14;;;;;;;;;;;;;;;7.25;58.58;98948.63;5093002;28;19923;-41
2023/03/16 06:33:40;;;;;;;;;;;;;;;6.94;59.38;98938.59;5093402;28;19971;-42
2023/03/16 06:36:05;;;;;;;;;;;;;;;7.04;59.87;98981.34;5093261;28;19961;-42
2023/03/16 06:38:31;;;;;;;;;;;;;;;7.36;59.06;98978.97;5093228;28;19916;-42
2023/03/16 06:40:56;;;;;;;;;;;;;;;7.30;58.19;98983.25;5093065;28;19926;-42
2023/03/16 06:43:21;;;;;;;;;;;;;;;7.24;58.07;98990.16;5093554;28;19912;-42
2023/03/16 06:45:47;;;;;;;;;;;;;;;7.05;58.96;98988.28;5093421;28;19991;-43
2023/03/16 06:48:12;;;;;;;;;;;;;;;7.28;58.29;98993.22;5092935;28;19955;-43
2023/03/16 06:50:37;;;;;;;;;;;;;;;7.33;57.89;98993.44;5092982;28;20271;-42
2023/03/16 06:53:02;;;;;;;;;;;;;;;7.47;57.35;98993.47;5092916;28;19923;-43
2023/03/16 06:55:28;;;;;;;;;;;;;;;7.38;58.31;99006.06;5092720;28;20000;-42
2023/03/16 06:57:53;;;;;;;;;;;;;;;8.53;59.76;99006.69;5091728;28;19912;-42
2023/03/16 07:00:18;;;;;;;;;;;;;;;9.45;54.11;99003.84;5092275;28;19923;-42
2023/03/16 07:02:44;;;;;;;;;;;;;;;9.46;53.62;99007.28;5092916;28;20025;-42
2023/03/16 07:05:12;;;;;;;;;;;;;;;9.76;52.41;99015.47;5091953;28;19920;-43
2023/03/16 07:07:41;;;;;;;;;;;;;;;9.38;51.58;99021.63;5091634;28;20521;-42
2023/03/16 07:10:08;;;;;;;;;;;;;;;8.54;53.49;99015.44;5091782;28;19935;-43
2023/03/16 07:12:33;;;;;;;;;;;;;;;8.70;53.28;99036.22;5091686;28;19916;-42
2023/03/16 07:15:00;;;;;;;;;;;;;;;8.78;53.27;99020.06;5091656;28;19912;-42
2023/03/16 07:17:25;;;;;;;;;;;;;;;8.53;53.48;99027.91;5091687;28;19919;-42
2023/03/16 07:19:50;;;;;;;;;;;;;;;8.52;53.90;99022.81;5091242;28;19916;-42
2023/03/16 07:22:15;;;;;;;;;;;;;;;8.69;53.40;99028.47;5091061;28;20285;-42
2023/03/16 07:24:42;;;;;;;;;;;;;;;8.70;52.94;99040.69;5090517;28;19970;-43
2023/03/16 07:27:07;;;;;;;;;;;;;;;8.10;54.22;99040.78;5090501;28;19915;-43
2023/03/16 07:29:33;;;;;;;;;;;;;;;8.30;53.62;99038.94;5091202;28;19912;-42
2023/03/16 07:31:58;;;;;;;;;;;;;;;8.46;53.79;99039.53;5092057;28;19921;-42
2023/03/16 07:34:23;;;;;;;;;;;;;;;8.36;53.60;99051.34;5091997;28;20236;-42
2023/03/16 07:36:51;;;;;;;;;;;;;;;8.23;53.82;99048.72;5091734;28;19912;-43
2023/03/16 07:39:17;;;;;;;;;;;;;;;8.46;53.15;99042.19;5091594;28;20417;-43
2023/03/16 07:41:42;;;;;;;;;;;;;;;8.45;53.28;99038.72;5091828;28;19941;-43
2023/03/16 07:44:08;;;;;;;;;;;;;;;8.38;53.87;99043.19;5091784;28;19961;-41
2023/03/16 07:46:35;;;;;;;;;;;;;;;8.44;53.68;99042.41;5092149;28;19950;-43
2023/03/16 07:49:00;;;;;;;;;;;;;;;8.60;53.22;99051.75;5092124;28;19993;-41
2023/03/16 07:51:26;;;;;;;;;;;;;;;8.67;52.80;99041.94;5091931;28;19912;-43
2023/03/16 07:53:51;;;;;;;;;;;;;;;8.83;52.95;99043.31;5092110;28;19921;-43
2023/03/16 07:56:16;;;;;;;;;;;;;;;8.75;52.80;99039.06;5091799;28;19923;-43
2023/03/16 07:58:41;;;;;;;;;;;;;;;8.73;52.80;99050.91;5091313;28;19916;-42
2023/03/16 08:01:08;;;;;;;;;;;;;;;8.69;53.17;99041.75;5091488;28;19923;-42
2023/03/16 08:03:33;;;;;;;;;;;;;;;8.78;53.08;99043.16;5091748;28;19912;-42
2023/03/16 08:05:58;;;;;;;;;;;;;;;8.53;53.38;99049.13;5091834;28;20007;-43
2023/03/16 08:08:24;;;;;;;;;;;;;;;8.75;53.19;99054.97;5091399;28;19912;-44
2023/03/16 08:10:51;;;;;;;;;;;;;;;8.71;53.31;99051.09;5091499;28;19924;-42
2023/03/16 08:13:16;;;;;;;;;;;;;;;8.98;52.63;99040.41;5091505;28;19969;-42
2023/03/16 08:15:44;;;;;;;;;;;;;;;9.08;52.04;99042.63;5091489;28;20299;-42
2023/03/16 08:18:09;;;;;;;;;;;;;;;9.72;50.80;99054.13;5091846;28;20364;-43
2023/03/16 08:20:35;;;;;;;;;;;;;;;9.36;51.51;99064.34;5091451;28;19999;-43
2023/03/16 08:23:00;;;;;;;;;;;;;;;9.53;50.90;99055.88;5091266;28;19924;-42
2023/03/16 08:25:25;;;;;;;;;;;;;;;9.95;49.96;99064.19;5091629;28;19920;-42
2023/03/16 08:27:51;;;;;;;;;;;;;;;9.87;49.54;99065.28;5091401;28;19938;-42
2023/03/16 08:30:17;;;;;;;;;;;;;;;9.96;49.29;99074.59;5091143;28;20011;-43
2023/03/16 08:32:43;;;;;;;;;;;;;;;10.06;49.26;99076.78;5091600;28;20002;-43
2023/03/16 08:35:09;;;;;;;;;;;;;;;10.00;49.53;99082.97;5090732;28;20341;-42
2023/03/16 08:37:35;;;;;;;;;;;;;;;9.79;49.41;99082.28;5091174;28;19961;-42
2023/03/16 08:40:01;;;;;;;;;;;;;;;10.01;49.01;99087.25;5090826;28;19924;-41
2023/03/16 08:42:27;;;;;;;;;;;;;;;10.10;48.85;99098.44;5091320;28;19939;-43
2023/03/16 08:44:54;;;;;;;;;;;;;;;9.58;49.31;99088.75;5091021;28;19912;-43
2023/03/16 08:47:20;;;;;;;;;;;;;;;9.92;49.17;99088.56;5090328;28;20372;-43
2023/03/16 08:49:45;;;;;;;;;;;;;;;10.00;48.60;99076.84;5090623;28;19912;-43
2023/03/16 08:52:11;;;;;;;;;;;;;;;9.86;48.74;99089.41;5090942;28;20328;-43
2023/03/16 08:54:37;;;;;;;;;;;;;;;10.01;48.44;99089.91;5091129;28;19912;-43
2023/03/16 08:57:03;;;;;;;;;;;;;;;9.73;48.58;99083.16;5091191;28;20302;-43
2023/03/16 08:59:28;;;;;;;;;;;;;;;9.64;48.91;99087.09;5091183;28;19916;-44
2023/03/16 09:01:53;;;;;;;;;;;;;;;9.41;49.17;99082.31;5091528;28;19915;-45
2023/03/16 09:04:20;;;;;;;;;;;;;;;9.64;48.89;99079.13;5091108;28;19959;-45
2023/03/16 09:06:46;;;;;;;;;;;;;;;9.64;49.02;99094.25;5090761;28;19923;-44
2023/03/16 09:09:12;;;;;;;;;;;;;;;9.85;48.70;99082.47;5090574;28;20013;-43
2023/03/16 09:11:37;;;;;;;;;;;;;;;10.60;47.95;99093.13;5094108;28;20472;-43
2023/03/16 09:14:03;;;;;;;;;;;;;;;10.63;46.78;99094.56;5094951;28;20296;-43
2023/03/16 09:16:29;;;;;;;;;;;;;;;10.65;46.66;99098.63;5095021;28;19912;-42
2023/03/16 09:18:55;;;;;;;;;;;;;;;10.37;47.34;99088.44;5095369;28;19922;-43
2023/03/16 09:21:20;;;;;;;;;;;;;;;10.10;47.76;99095.78;5094702;28;19916;-43
2023/03/16 09:23:46;;;;;;;;;;;;;;;10.56;46.58;99091.94;5094727;28;19931;-43
2023/03/16 09:26:12;;;;;;;;;;;;;;;10.26;47.76;99095.25;5094915;28;19912;-44
2023/03/16 09:28:39;;;;;;;;;;;;;;;10.30;47.83;99093.81;5094828;28;19919;-44
2023/03/16 09:31:05;;;;;;;;;;;;;;;10.49;47.42;99096.50;5094800;28;19912;-42
2023/03/16 09:33:31;;;;;;;;;;;;;;;10.54;46.21;99086.84;5094401;28;19923;-43
2023/03/16 09:35:57;;;;;;;;;;;;;;;10.54;46.65;99097.47;5094377;28;19919;-43
2023/03/16 09:38:25;;;;;;;;;;;;;;;10.60;46.14;99101.09;5094263;28;20279;-43
2023/03/16 09:40:56;;;;;;;;;;;;;;;10.73;45.78;99098.31;5094207;28;19973;-43
2023/03/16 09:43:42;;;;;;;;;;;;;;;10.55;46.23;99098.31;5094134;28;19965;-42
2023/03/16 09:46:13;;;;;;;;;;;;;;;10.96;45.36;99091.53;5093785;28;20371;-42
2023/03/16 09:48:39;;;;;;;;;;;;;;;11.01;45.23;99107.66;5093856;28;19920;-42
2023/03/16 09:51:07;;;;;;;;;;;;;;;10.85;45.17;99100.25;5094061;28;19919;-44
2023/03/16 09:53:34;;;;;;;;;;;;;;;11.17;45.11;99100.13;5093843;28;19912;-42
2023/03/16 09:56:02;;;;;;;;;;;;;;;11.46;44.47;99094.03;5093887;28;19973;-43
2023/03/16 09:58:27;;;;;;;;;;;;;;;11.16;45.10;99096.66;5093869;28;20326;-43
2023/03/16 10:00:59;;;;;;;;;;;;;;;11.26;45.00;99104.91;5094235;28;20002;-43
2023/03/16 10:03:43;;;;;;;;;;;;;;;11.22;44.88;99110.94;5094176;28;19912;-43
2023/03/16 10:06:11;;;;;;;;;;;;;;;11.11;44.75;99109.81;5094105;28;19995;-44
2023/03/16 10:08:38;;;;;;;;;;;;;;;11.46;44.12;99117.16;5094280;28;20277;-44
2023/03/16 10:11:13;;;;;;;;;;;;;;;11.27;44.68;99111.06;5093941;28;20025;-44
2023/03/16 10:13:42;;;;;;;;;;;;;;;11.06;44.74;99099.84;5093773;28;20387;-43
2023/03/16 10:16:19;;;;;;;;;;;;;;;11.38;43.72;99110.31;5093557;28;20014;-43
2023/03/16 10:18:45;;;;;;;;;;;;;;;11.66;43.36;99100.94;5093231;28;19916;-43
2023/03/16 10:21:13;;;;;;;;;;;;;;;11.61;43.24;99114.13;5093270;28;19919;-42
2023/03/16 10:23:39;;;;;;;;;;;;;;;12.06;43.40;99113.72;5092381;28;20401;-43
2023/03/16 10:26:11;;;;;;;;;;;;;;;11.52;43.17;99098.44;5093360;28;19966;-44
2023/03/16 10:28:37;;;;;;;;;;;;;;;12.06;43.02;99109.19;5093669;28;19919;-43
2023/03/16 10:31:03;;;;;;;;;;;;;;;12.30;42.39;99111.94;5093478;28;19912;-42
2023/03/16 10:33:31;;;;;;;;;;;;;;;13.01;41.45;99107.38;5093517;28;19911;-43
2023/03/16 10:36:04;;;;;;;;;;;;;;;12.79;40.96;99112.50;5093231;28;20363;-42
2023/03/16 10:38:32;;;;;;;;;;;;;;;13.48;39.74;99099.28;5092929;28;20014;-44
2023/03/16 10:40:58;;;;;;;;;;;;;;;13.81;39.23;99105.75;5093326;28;19919;-45
2023/03/16 10:43:24;;;;;;;;;;;;;;;13.51;39.58;99106.00;5093091;28;20229;-43
2023/03/16 10:45:49;;;;;;;;;;;;;;;13.49;39.39;99113.44;5092979;28;19919;-43
2023/03/16 10:48:19;;;;;;;;;;;;;;;13.03;39.86;99104.47;5092631;28;20285;-44
2023/03/16 10:50:49;;;;;;;;;;;;;;;13.38;39.79;99106.28;5093021;28;19912;-43
2023/03/16 10:53:34;;;;;;;;;;;;;;;13.00;40.12;99112.94;5092368;28;20376;-44
2023/03/16 10:56:01;;;;;;;;;;;;;;;12.39;41.67;99105.19;5092085;28;19916;-44
2023/03/16 10:58:31;;;;;;;;;;;;;;;12.42;40.81;99112.75;5092569;28;19912;-44
2023/03/16 11:00:56;;;;;;;;;;;;;;;13.36;39.64;99113.72;5092321;28;19912;-43
2023/03/16 11:03:37;;;;;;;;;;;;;;;13.33;39.62;99098.16;5092579;28;19912;-43
2023/03/16 11:06:04;;;;;;;;;;;;;;;13.48;39.18;99093.13;5092066;28;19947;-42
2023/03/16 11:08:33;;;;;;;;;;;;;;;12.73;40.02;99092.09;5093080;28;20340;-43
2023/03/16 11:11:01;;;;;;;;;;;;;;;12.62;40.49;99092.91;5092969;28;19916;-43
2023/03/16 11:13:34;;;;;;;;;;;;;;;13.03;39.80;99101.81;5092293;28;20006;-43
2023/03/16 11:16:04;;;;;;;;;;;;;;;12.93;40.15;99097.06;5091944;28;19923;-43
2023/03/16 11:18:32;;;;;;;;;;;;;;;13.12;39.65;99095.06;5089442;28;19912;-43
2023/03/16 11:21:04;;;;;;;;;;;;;;;13.07;39.49;99079.72;5091671;28;19916;-44
2023/03/16 11:23:32;;;;;;;;;;;;;;;12.88;40.36;99102.28;5089125;28;19928;-43
2023/03/16 11:26:00;;;;;;;;;;;;;;;13.23;40.10;99094.22;5091446;28;20020;-43
2023/03/16 11:28:26;;;;;;;;;;;;;;;12.69;40.57;99098.94;5091861;28;20041;-42
2023/03/16 11:31:08;;;;;;;;;;;;;;;13.19;40.20;99087.72;5091727;28;20376;-42
2023/03/16 11:33:34;;;;;;;;;;;;;;;13.43;39.05;99095.69;5089259;28;19927;-42
2023/03/16 11:36:05;;;;;;;;;;;;;;;13.31;39.63;99090.41;5091540;28;19920;-36
2023/03/16 11:38:52;;;;;;;;;;;;;;;13.67;38.85;99094.56;5091715;28;19912;-36
2023/03/16 11:41:38;;;;;;;;;;;;;;;13.36;39.30;99092.34;5091844;28;19916;-36
2023/03/16 11:44:09;;;;;;;;;;;;;;;13.12;39.41;99089.72;5090096;28;19912;-43
2023/03/16 11:46:47;;;;;;;;;;;;;;;13.48;38.87;99090.47;5091406;28;19916;-36
2023/03/16 11:49:27;;;;;;;;;;;;;;;13.58;38.91;99095.19;5091499;28;19919;-37
2023/03/16 11:51:56;;;;;;;;;;;;;;;13.23;39.37;99088.06;5089155;28;20340;-37
2023/03/16 11:54:34;;;;;;;;;;;;;;;12.90;40.06;99098.34;5091522;28;20092;-43
2023/03/16 11:57:06;;;;;;;;;;;;;;;13.23;39.69;99096.06;5089541;28;19916;-42
2023/03/16 11:59:50;;;;;;;;;;;;;;;12.99;40.04;99098.00;5093460;28;20007;-44
2023/03/16 12:02:21;;;;;;;;;;;;;;;12.58;40.41;99094.41;5093645;28;19920;-37
2023/03/16 12:05:06;;;;;;;;;;;;;;;12.54;40.69;99096.72;5093664;28;19919;-37
2023/03/16 12:07:34;;;;;;;;;;;;;;;13.21;39.62;99112.34;5091131;28;20240;-37
2023/03/16 12:10:01;;;;;;;;;;;;;;;13.23;39.48;99106.75;5101409;28;19919;-37
2023/03/16 12:12:33;;;;;;;;;;;;;;;13.33;39.19;99112.34;5102189;28;19912;-36
2023/03/16 12:15:04;;;;;;;;;;;;;;;13.18;39.19;99117.34;5092074;28;19916;-35
2023/03/16 12:17:31;;;;;;;;;;;;;;;13.00;39.14;99112.94;5091679;28;20049;-37
2023/03/16 12:20:05;;;;;;;;;;;;;;;13.32;39.17;99117.94;5091807;28;19916;-37
2023/03/16 12:22:37;;;;;;;;;;;;;;;12.72;39.58;99117.16;5091659;28;20007;-37
2023/03/16 12:25:05;;;;;;;;;;;;;;;12.26;40.58;99116.06;5091912;28;20086;-37
2023/03/16 12:27:35;;;;;;;;;;;;;;;12.66;39.72;99120.75;5091235;28;19912;-38
2023/03/16 12:30:19;;;;;;;;;;;;;;;12.90;39.60;99121.56;5091992;28;19912;-37
2023/03/16 12:32:49;;;;;;;;;;;;;;;12.65;39.66;99125.28;5091901;28;19919;-37
2023/03/16 12:35:17;;;;;;;;;;;;;;;12.68;39.99;99124.84;5091973;28;20324;-37
2023/03/16 12:37:49;;;;;;;;;;;;;;;12.47;40.36;99136.06;5091747;28;19923;-38
2023/03/16 12:40:14;;;;;;;;;;;;;;;12.54;40.22;99130.63;5091162;28;20061;-36
2023/03/16 12:42:45;;;;;;;;;;;;;;;12.39;40.70;99131.06;5091744;28;19954;-37
2023/03/16 12:45:11;;;;;;;;;;;;;;;12.65;39.89;99127.94;5093894;28;19992;-37
2023/03/16 12:47:42;;;;;;;;;;;;;;;12.71;40.48;99132.34;5098487;28;20415;-36
2023/03/16 12:50:10;;;;;;;;;;;;;;;12.87;40.14;99138.03;5098453;28;19916;-37
2023/03/16 12:52:39;;;;;;;;;;;;;;;12.60;40.62;99138.50;5098543;28;19908;-37
2023/03/16 12:55:06;;;;;;;;;;;;;;;12.79;40.24;99144.53;5098262;28;20007;-36